createdAt,value
2019-01-19T00:02:27.841Z,18.80
2019-01-19T00:05:02.352Z,18.77
2019-01-19T00:07:46.047Z,19.82
2019-01-19T00:10:35.837Z,18.98
2019-01-19T00:13:16.069Z,19.77
2019-01-19T00:15:47.767Z,20.10
2019-01-19T00:18:42.113Z,25.45
2019-01-19T00:21:25.753Z,24.47
2019-01-19T00:23:57.333Z,21.87
2019-01-19T00:26:50.188Z,21.68
2019-01-19T00:29:41.690Z,23.07
2019-01-19T00:32:42.071Z,28.87
2019-01-19T00:35:25.390Z,40.92
2019-01-19T00:37:56.917Z,68.30
2019-01-19T00:40:48.123Z,93.80
2019-01-19T00:43:17.144Z,55.00
2019-01-19T00:45:57.863Z,53.42
2019-01-19T00:48:32.428Z,52.98
2019-01-19T00:51:20.931Z,49.00
2019-01-19T00:54:13.971Z,55.75
2019-01-19T00:57:09.833Z,38.50
2019-01-19T00:59:41.087Z,31.37
2019-01-19T01:02:19.171Z,31.70
2019-01-19T01:05:06.128Z,30.50
2019-01-19T01:07:43.363Z,27.70
2019-01-19T01:10:14.967Z,28.65
2019-01-19T01:12:52.143Z,27.52
2019-01-19T01:15:32.476Z,23.45
2019-01-19T01:18:04.101Z,24.10
2019-01-19T01:20:44.273Z,26.13
2019-01-19T01:23:43.179Z,24.00
2019-01-19T01:26:26.612Z,21.03
2019-01-19T01:29:00.973Z,23.55
2019-01-19T01:31:41.398Z,22.33
2019-01-19T01:34:18.803Z,20.27
2019-01-19T01:37:03.714Z,20.30
2019-01-19T01:39:38.105Z,21.97
2019-01-19T01:42:12.458Z,21.87
2019-01-19T01:44:53.205Z,22.80
2019-01-19T01:47:33.663Z,20.77
2019-01-19T01:50:08.098Z,20.10
2019-01-19T01:52:57.483Z,21.10
2019-01-19T01:55:29.065Z,20.17
2019-01-19T01:58:00.587Z,21.13
2019-01-19T02:00:39.294Z,21.13
2019-01-19T02:03:19.950Z,21.23
2019-01-19T02:06:06.557Z,23.90
2019-01-19T02:09:09.057Z,21.40
2019-01-19T02:11:57.427Z,19.67
2019-01-19T02:14:28.952Z,23.97
2019-01-19T02:17:03.560Z,22.70
2019-01-19T02:19:47.216Z,18.53
2019-01-19T02:22:27.681Z,18.33
2019-01-19T02:25:05.137Z,19.37
2019-01-19T02:28:02.327Z,17.97
2019-01-19T02:30:53.094Z,19.53
2019-01-19T02:33:50.386Z,19.10
2019-01-19T02:36:30.785Z,17.90
2019-01-19T02:39:12.231Z,16.57
2019-01-19T02:42:00.200Z,18.53
2019-01-19T02:44:49.466Z,20.60
2019-01-19T02:47:27.176Z,19.13
2019-01-19T02:50:22.341Z,20.00
2019-01-19T02:53:20.912Z,21.23
2019-01-19T02:56:01.458Z,16.97
2019-01-19T02:58:58.354Z,18.53
2019-01-19T03:01:35.038Z,21.77
2019-01-19T03:04:24.708Z,24.40
2019-01-19T03:07:14.501Z,19.30
2019-01-19T03:10:02.358Z,17.73
2019-01-19T03:12:54.882Z,24.45
2019-01-19T03:15:35.321Z,18.87
2019-01-19T03:18:18.709Z,28.40
2019-01-19T03:21:02.826Z,31.77
2019-01-19T03:23:40.526Z,28.53
2019-01-19T03:26:21.190Z,21.40
2019-01-19T03:29:15.598Z,18.67
2019-01-19T03:31:54.040Z,25.33
2019-01-19T03:34:42.169Z,33.02
2019-01-19T03:37:29.169Z,26.93
2019-01-19T03:40:06.893Z,19.53
2019-01-19T03:42:47.180Z,17.27
2019-01-19T03:45:35.360Z,16.15
2019-01-19T03:48:19.035Z,17.07
2019-01-19T03:51:07.003Z,25.17
2019-01-19T03:53:42.429Z,24.40
2019-01-19T03:56:17.213Z,27.50
2019-01-19T03:59:07.162Z,24.18
2019-01-19T04:01:47.441Z,19.13
2019-01-19T04:04:32.751Z,17.60
2019-01-19T04:07:07.059Z,17.90
2019-01-19T04:09:44.452Z,19.67
2019-01-19T04:12:27.958Z,19.17
2019-01-19T04:15:14.885Z,20.50
2019-01-19T04:17:52.529Z,26.27
2019-01-19T04:20:46.882Z,24.15
2019-01-19T04:23:15.454Z,23.02
2019-01-19T04:25:46.990Z,22.13
2019-01-19T04:28:15.907Z,20.40
2019-01-19T04:30:44.439Z,20.37
2019-01-19T04:33:12.997Z,22.22
2019-01-19T04:35:41.459Z,24.23
2019-01-19T04:38:10.061Z,21.12
2019-01-19T04:40:38.533Z,20.80
2019-01-19T04:43:06.999Z,21.60
2019-01-19T04:45:35.531Z,27.57
2019-01-19T04:48:04.459Z,29.30
2019-01-19T04:50:32.968Z,29.03
2019-01-19T04:53:01.571Z,30.40
2019-01-19T04:55:31.085Z,27.07
2019-01-19T04:57:59.554Z,21.48
2019-01-19T05:00:28.220Z,18.10
2019-01-19T05:02:56.762Z,17.17
2019-01-19T05:05:28.103Z,16.80
2019-01-19T05:07:56.709Z,17.57
2019-01-19T05:10:25.238Z,17.90
2019-01-19T05:12:53.804Z,18.90
2019-01-19T05:15:22.395Z,19.57
2019-01-19T05:17:51.010Z,21.00
2019-01-19T05:20:19.569Z,22.07
2019-01-19T05:22:49.272Z,22.42
2019-01-19T05:25:17.779Z,23.22
2019-01-19T05:27:46.242Z,21.45
2019-01-19T05:30:17.232Z,22.10
2019-01-19T05:32:47.901Z,21.33
2019-01-19T05:35:16.844Z,21.90
2019-01-19T05:37:46.243Z,21.40
2019-01-19T05:40:14.885Z,23.73
2019-01-19T05:42:43.521Z,23.65
2019-01-19T05:45:14.205Z,24.80
2019-01-19T05:47:43.771Z,27.17
2019-01-19T05:50:17.503Z,27.07
2019-01-19T05:52:46.071Z,27.98
2019-01-19T05:55:14.592Z,31.50
2019-01-19T05:57:43.129Z,34.38
2019-01-19T06:00:20.898Z,28.77
2019-01-19T06:02:49.479Z,27.45
2019-01-19T06:05:18.293Z,27.17
2019-01-19T06:07:48.840Z,27.20
2019-01-19T06:10:18.002Z,24.80
2019-01-19T06:12:46.573Z,20.68
2019-01-19T06:15:16.768Z,23.47
2019-01-19T06:17:45.381Z,22.10
2019-01-19T06:20:16.013Z,20.92
2019-01-19T06:22:44.811Z,21.35
2019-01-19T06:25:16.810Z,21.25
2019-01-19T06:27:45.525Z,23.98
2019-01-19T06:30:19.572Z,23.02
2019-01-19T06:32:48.214Z,26.62
2019-01-19T06:35:16.953Z,25.32
2019-01-19T06:37:45.630Z,22.37
2019-01-19T06:40:16.619Z,21.25
2019-01-19T06:42:45.960Z,20.68
2019-01-19T06:45:22.796Z,25.05
2019-01-19T06:47:51.383Z,24.60
2019-01-19T06:50:20.002Z,24.87
2019-01-19T06:52:48.606Z,25.12
2019-01-19T06:55:23.214Z,25.30
2019-01-19T06:57:51.862Z,24.63
2019-01-19T07:00:20.496Z,22.35
2019-01-19T07:02:49.950Z,24.20
2019-01-19T07:05:18.575Z,26.37
2019-01-19T07:07:47.201Z,25.52
2019-01-19T07:10:20.112Z,27.02
2019-01-19T07:12:49.584Z,31.47
2019-01-19T07:15:18.264Z,31.65
2019-01-19T07:17:46.825Z,39.63
2019-01-19T07:20:24.271Z,35.37
2019-01-19T07:22:52.904Z,37.40
2019-01-19T07:25:21.515Z,42.43
2019-01-19T07:27:50.045Z,43.70
2019-01-19T07:30:18.861Z,40.93
2019-01-19T07:32:47.876Z,38.07
2019-01-19T07:35:17.296Z,41.47
2019-01-19T07:37:45.769Z,41.23
2019-01-19T07:40:17.127Z,42.80
2019-01-19T07:42:46.568Z,46.27
2019-01-19T07:45:16.234Z,48.50
2019-01-19T07:47:45.354Z,48.07
2019-01-19T07:50:18.578Z,50.03
2019-01-19T07:52:47.116Z,51.13
2019-01-19T07:55:17.451Z,50.37
2019-01-19T07:57:47.160Z,47.13
2019-01-19T08:00:18.459Z,47.80
2019-01-19T08:02:47.010Z,43.63
2019-01-19T08:05:16.674Z,47.10
2019-01-19T08:07:45.528Z,79.30
2019-01-19T08:10:20.516Z,117.03
2019-01-19T08:12:50.153Z,121.97
2019-01-19T08:15:26.838Z,129.57
2019-01-19T08:17:55.639Z,118.53
2019-01-19T08:20:24.463Z,108.67
2019-01-19T08:22:53.022Z,100.93
2019-01-19T08:25:21.621Z,89.97
2019-01-19T08:27:50.109Z,68.07
2019-01-19T08:30:20.912Z,64.77
2019-01-19T08:32:50.278Z,58.47
2019-01-19T08:35:19.100Z,43.53
2019-01-19T08:37:48.507Z,35.70
2019-01-19T08:40:22.879Z,29.87
2019-01-19T08:42:59.054Z,33.30
2019-01-19T08:45:27.542Z,34.13
2019-01-19T08:47:56.261Z,40.43
2019-01-19T08:50:24.804Z,45.67
2019-01-19T08:52:53.352Z,44.27
2019-01-19T08:55:21.944Z,42.80
2019-01-19T08:57:50.495Z,42.47
2019-01-19T09:00:20.412Z,34.83
2019-01-19T09:02:49.124Z,35.40
2019-01-19T09:05:18.471Z,28.97
2019-01-19T09:07:47.021Z,27.43
2019-01-19T09:10:17.147Z,27.07
2019-01-19T09:12:48.004Z,26.17
2019-01-19T09:15:19.260Z,22.47
2019-01-19T09:17:47.797Z,24.07
2019-01-19T09:20:17.947Z,24.60
2019-01-19T09:22:48.713Z,22.37
2019-01-19T09:25:17.714Z,23.87
2019-01-19T09:27:47.372Z,24.83
2019-01-19T09:30:18.778Z,22.23
2019-01-19T09:32:47.953Z,26.57
2019-01-19T09:35:17.743Z,31.57
2019-01-19T09:37:46.964Z,34.10
2019-01-19T09:40:18.853Z,35.30
2019-01-19T09:42:47.481Z,32.80
2019-01-19T09:45:17.862Z,33.33
2019-01-19T09:47:46.634Z,19.30
2019-01-19T09:50:17.026Z,14.03
2019-01-19T09:52:46.710Z,13.77
2019-01-19T09:55:15.440Z,12.97
2019-01-19T09:57:43.928Z,12.90
2019-01-19T10:00:15.282Z,13.70
2019-01-19T10:02:43.923Z,14.63
2019-01-19T10:05:15.589Z,13.10
2019-01-19T10:07:48.466Z,13.13
2019-01-19T10:10:15.006Z,12.83
2019-01-19T10:12:43.539Z,13.27
2019-01-19T10:15:14.741Z,13.77
2019-01-19T10:17:44.328Z,13.33
2019-01-19T10:20:29.775Z,13.63
2019-01-19T10:22:58.368Z,14.20
2019-01-19T10:25:27.007Z,13.80
2019-01-19T10:27:55.561Z,13.77
2019-01-19T10:30:33.735Z,15.50
2019-01-19T10:33:02.276Z,15.07
2019-01-19T10:35:30.810Z,15.13
2019-01-19T10:37:59.434Z,14.13
2019-01-19T10:40:27.902Z,14.53
2019-01-19T10:42:56.372Z,14.10
2019-01-19T10:45:45.693Z,13.77
2019-01-19T10:48:14.234Z,13.70
2019-01-19T10:50:42.708Z,13.13
2019-01-19T10:53:11.235Z,14.60
2019-01-19T10:55:39.801Z,13.03
2019-01-19T10:58:08.384Z,14.00
2019-01-19T11:00:36.982Z,12.87
2019-01-19T11:03:05.660Z,12.73
2019-01-19T11:05:34.262Z,13.03
2019-01-19T11:08:04.222Z,12.40
2019-01-19T11:10:36.198Z,10.77
2019-01-19T11:13:04.916Z,11.13
2019-01-19T11:15:33.569Z,12.20
2019-01-19T11:18:02.029Z,11.50
2019-01-19T11:20:32.385Z,12.47
2019-01-19T11:23:02.418Z,13.10
2019-01-19T11:25:31.221Z,12.43
2019-01-19T11:27:59.907Z,11.50
2019-01-19T11:30:33.183Z,13.37
2019-01-19T11:33:01.750Z,13.80
2019-01-19T11:35:30.974Z,13.93
2019-01-19T11:37:59.453Z,15.70
2019-01-19T11:40:33.708Z,15.53
2019-01-19T11:43:02.323Z,13.30
2019-01-19T11:45:30.986Z,13.80
2019-01-19T11:47:59.461Z,15.63
2019-01-19T11:50:28.099Z,13.90
2019-01-19T11:52:56.711Z,15.67
2019-01-19T11:55:25.245Z,15.60
2019-01-19T11:58:00.607Z,16.67
2019-01-19T12:00:34.551Z,15.20
2019-01-19T12:03:05.716Z,14.63
2019-01-19T12:05:34.257Z,15.60
2019-01-19T12:08:02.799Z,15.23
2019-01-19T12:10:32.035Z,14.07
2019-01-19T12:13:00.751Z,14.23
2019-01-19T12:15:29.619Z,14.40
2019-01-19T12:17:59.340Z,14.70
2019-01-19T12:20:30.487Z,15.50
2019-01-19T12:22:59.221Z,14.23
2019-01-19T12:25:27.763Z,14.87
2019-01-19T12:27:56.291Z,15.40
2019-01-19T12:30:30.523Z,15.27
2019-01-19T12:32:59.129Z,17.20
2019-01-19T12:35:28.156Z,18.17
2019-01-19T12:37:57.626Z,30.40
2019-01-19T12:40:28.360Z,42.40
2019-01-19T12:42:59.663Z,47.57
2019-01-19T12:45:33.821Z,19.97
2019-01-19T12:48:02.404Z,28.30
2019-01-19T12:50:31.040Z,35.40
2019-01-19T12:52:59.773Z,27.60
2019-01-19T12:55:28.239Z,23.33
2019-01-19T12:57:56.715Z,22.17
2019-01-19T13:00:29.014Z,21.60
2019-01-19T13:02:57.850Z,23.13
2019-01-19T13:05:35.535Z,22.40
2019-01-19T13:08:06.835Z,22.03
2019-01-19T13:10:50.557Z,22.63
2019-01-19T13:13:19.104Z,13.17
2019-01-19T13:15:50.681Z,7.07
2019-01-19T13:18:46.673Z,7.10
2019-01-19T13:21:42.618Z,8.00
2019-01-19T13:24:26.736Z,15.03
2019-01-19T13:27:14.721Z,12.50
2019-01-19T13:29:55.090Z,16.47
2019-01-19T13:32:50.942Z,15.73
2019-01-19T13:35:42.242Z,16.03
2019-01-19T13:38:28.692Z,7.17
2019-01-19T13:41:21.759Z,8.87
2019-01-19T13:44:02.527Z,5.93
2019-01-19T13:46:54.023Z,6.07
2019-01-19T13:49:48.442Z,6.50
2019-01-19T13:52:20.051Z,10.57
2019-01-19T13:55:09.797Z,12.13
2019-01-19T13:57:44.215Z,8.87
2019-01-19T14:00:38.690Z,10.90
2019-01-19T14:03:22.269Z,8.87
2019-01-19T14:06:22.604Z,11.30
2019-01-19T14:09:12.288Z,11.33
2019-01-19T14:12:00.325Z,8.70
2019-01-19T14:14:52.992Z,13.60
2019-01-19T14:17:40.975Z,7.67
2019-01-19T14:20:21.230Z,7.97
2019-01-19T14:23:15.181Z,7.53
2019-01-19T14:25:59.000Z,7.70
2019-01-19T14:28:39.933Z,8.17
2019-01-19T14:31:20.352Z,7.50
2019-01-19T14:33:57.680Z,7.60
2019-01-19T14:36:38.790Z,8.53
2019-01-19T14:39:13.315Z,10.43
2019-01-19T14:42:06.402Z,10.87
2019-01-19T14:44:37.918Z,7.53
2019-01-19T14:47:24.665Z,8.23
2019-01-19T14:50:29.736Z,10.60
2019-01-19T14:53:13.262Z,13.27
2019-01-19T14:56:06.825Z,7.20
2019-01-19T14:58:59.760Z,6.47
2019-01-19T15:01:57.062Z,7.50
2019-01-19T15:04:37.395Z,8.07
2019-01-19T15:07:08.909Z,8.13
2019-01-19T15:09:56.981Z,9.73
2019-01-19T15:12:28.509Z,13.13
2019-01-19T15:15:12.011Z,12.83
2019-01-19T15:17:55.814Z,15.93
2019-01-19T15:20:39.670Z,15.13
2019-01-19T15:23:11.196Z,15.77
2019-01-19T15:25:57.934Z,15.90
2019-01-19T15:28:39.292Z,14.67
2019-01-19T15:31:27.580Z,14.10
2019-01-19T15:34:23.114Z,14.47
2019-01-19T15:36:57.493Z,13.70
2019-01-19T15:39:44.271Z,16.57
2019-01-19T15:42:31.298Z,18.87
2019-01-19T15:45:19.355Z,28.60
2019-01-19T15:48:01.704Z,40.43
2019-01-19T15:50:39.138Z,69.30
2019-01-19T15:53:19.553Z,47.37
2019-01-19T15:56:09.299Z,35.43
2019-01-19T15:58:46.591Z,30.97
2019-01-19T16:01:33.196Z,26.27
2019-01-19T16:04:13.560Z,25.87
2019-01-19T16:06:54.122Z,23.73
2019-01-19T16:09:25.712Z,23.77
2019-01-19T16:12:00.251Z,25.77
2019-01-19T16:14:31.891Z,25.17
2019-01-19T16:17:09.308Z,26.17
2019-01-19T16:19:40.891Z,27.27
2019-01-19T16:22:33.362Z,29.00
2019-01-19T16:25:26.513Z,29.18
2019-01-19T16:27:58.039Z,28.87
2019-01-19T16:30:46.714Z,27.50
2019-01-19T16:33:33.245Z,28.83
2019-01-19T16:36:21.016Z,29.55
2019-01-19T16:38:58.398Z,29.02
2019-01-19T16:41:39.288Z,30.47
2019-01-19T16:44:16.908Z,29.85
2019-01-19T16:47:06.673Z,27.58
2019-01-19T16:49:43.953Z,26.90
2019-01-19T16:52:27.328Z,26.37
2019-01-19T16:55:11.042Z,28.87
2019-01-19T16:57:57.983Z,30.62
2019-01-19T17:00:49.506Z,31.73
2019-01-19T17:03:21.109Z,33.98
2019-01-19T17:06:01.666Z,34.33
2019-01-19T17:08:39.047Z,35.60
2019-01-19T17:11:16.698Z,31.93
2019-01-19T17:14:02.707Z,32.38
2019-01-19T17:16:49.475Z,29.72
2019-01-19T17:19:39.100Z,28.60
2019-01-19T17:22:19.701Z,30.00
2019-01-19T17:25:15.073Z,30.20
2019-01-19T17:27:55.376Z,28.50
2019-01-19T17:30:29.460Z,27.43
2019-01-19T17:33:17.673Z,28.38
2019-01-19T17:35:49.281Z,28.50
2019-01-19T17:38:35.699Z,28.55
2019-01-19T17:41:26.699Z,31.00
2019-01-19T17:44:04.217Z,31.57
2019-01-19T17:46:38.377Z,32.45
2019-01-19T17:49:24.824Z,31.70
2019-01-19T17:51:59.340Z,29.33
2019-01-19T17:54:30.883Z,29.82
2019-01-19T17:57:08.541Z,30.60
2019-01-19T18:00:01.574Z,30.62
2019-01-19T18:02:54.451Z,30.40
2019-01-19T18:05:47.167Z,34.60
2019-01-19T18:08:38.204Z,38.35
2019-01-19T18:11:15.699Z,38.10
2019-01-19T18:14:08.533Z,35.20
2019-01-19T18:16:45.845Z,34.23
2019-01-19T18:19:23.030Z,34.20
2019-01-19T18:22:06.493Z,37.73
2019-01-19T18:24:47.032Z,38.50
2019-01-19T18:27:36.993Z,39.13
2019-01-19T18:30:31.459Z,37.65
2019-01-19T18:33:22.856Z,35.75
2019-01-19T18:36:13.656Z,32.78
2019-01-19T18:39:08.502Z,31.40
2019-01-19T18:41:40.201Z,30.33
2019-01-19T18:44:46.689Z,31.52
2019-01-19T18:47:26.499Z,30.02
2019-01-19T18:50:23.492Z,30.82
2019-01-19T18:53:07.129Z,31.35
2019-01-19T18:55:44.686Z,33.65
2019-01-19T18:58:22.674Z,37.93
2019-01-19T19:01:06.226Z,38.57
2019-01-19T19:03:58.329Z,49.15
2019-01-19T19:06:35.848Z,46.92
2019-01-19T19:09:27.107Z,35.65
2019-01-19T19:12:15.405Z,34.90
2019-01-19T19:14:56.019Z,40.00
2019-01-19T19:17:30.676Z,69.90
2019-01-19T19:20:23.519Z,63.55
2019-01-19T19:23:17.865Z,42.90
2019-01-19T19:25:49.476Z,39.38
2019-01-19T19:28:29.880Z,38.17
2019-01-19T19:31:04.537Z,38.17
2019-01-19T19:33:42.170Z,36.05
2019-01-19T19:36:19.546Z,39.13
2019-01-19T19:39:00.549Z,49.40
2019-01-19T19:41:44.240Z,48.23
2019-01-19T19:44:18.621Z,41.50
2019-01-19T19:46:52.986Z,37.45
2019-01-19T19:49:33.515Z,35.88
2019-01-19T19:52:03.062Z,33.53
2019-01-19T19:54:32.898Z,33.10
2019-01-19T19:57:01.728Z,33.13
2019-01-19T19:59:30.292Z,34.10
2019-01-19T20:01:58.939Z,33.57
2019-01-19T20:04:27.968Z,33.48
2019-01-19T20:06:56.595Z,32.70
2019-01-19T20:09:25.236Z,31.65
2019-01-19T20:11:56.672Z,32.13
2019-01-19T20:14:25.210Z,34.18
2019-01-19T20:16:53.895Z,34.38
2019-01-19T20:19:22.448Z,32.20
2019-01-19T20:21:51.087Z,31.35
2019-01-19T20:24:19.839Z,29.05
2019-01-19T20:26:48.389Z,28.38
2019-01-19T20:29:17.004Z,28.92
2019-01-19T20:31:45.475Z,28.40
2019-01-19T20:34:13.969Z,28.73
2019-01-19T20:36:43.653Z,27.80
2019-01-19T20:39:12.480Z,26.00
2019-01-19T20:41:41.879Z,25.63
2019-01-19T20:44:10.542Z,24.87
2019-01-19T20:46:39.283Z,24.12
2019-01-19T20:49:07.848Z,24.15
2019-01-19T20:51:36.515Z,24.40
2019-01-19T20:54:05.149Z,24.20
2019-01-19T20:56:33.631Z,25.77
2019-01-19T20:59:03.235Z,26.33
2019-01-19T21:01:31.799Z,26.00
2019-01-19T21:04:00.289Z,25.05
2019-01-19T21:06:29.983Z,24.67
2019-01-19T21:08:58.553Z,23.85
2019-01-19T21:11:27.169Z,24.77
2019-01-19T21:13:55.780Z,24.43
2019-01-19T21:16:24.260Z,23.70
2019-01-19T21:18:52.760Z,24.20
2019-01-19T21:21:21.432Z,23.67
2019-01-19T21:23:49.926Z,23.80
2019-01-19T21:26:18.617Z,24.80
2019-01-19T21:28:48.150Z,25.77
2019-01-19T21:31:16.631Z,24.95
2019-01-19T21:33:45.112Z,25.80
2019-01-19T21:36:13.728Z,26.17
2019-01-19T21:38:42.220Z,25.50
2019-01-19T21:41:10.700Z,24.90
2019-01-19T21:43:43.232Z,25.72
2019-01-19T21:46:11.752Z,24.18
2019-01-19T21:48:40.310Z,25.00
2019-01-19T21:51:09.728Z,25.17
2019-01-19T21:53:38.226Z,26.45
2019-01-19T21:56:06.767Z,23.85
2019-01-19T21:58:35.430Z,24.85
2019-01-19T22:01:04.045Z,25.07
2019-01-19T22:03:32.640Z,26.07
2019-01-19T22:06:01.277Z,25.23
2019-01-19T22:08:29.770Z,26.42
2019-01-19T22:10:58.416Z,25.97
2019-01-19T22:13:26.956Z,26.80
2019-01-19T22:15:55.492Z,28.07
2019-01-19T22:18:23.974Z,26.62
2019-01-19T22:20:52.606Z,29.83
2019-01-19T22:23:23.134Z,29.45
2019-01-19T22:25:51.681Z,28.77
2019-01-19T22:28:20.283Z,29.12
2019-01-19T22:30:48.762Z,28.67
2019-01-19T22:33:17.637Z,29.85
2019-01-19T22:35:46.253Z,30.32
2019-01-19T22:38:14.747Z,30.15
2019-01-19T22:40:43.297Z,30.93
2019-01-19T22:43:12.115Z,31.42
2019-01-19T22:45:41.554Z,32.00
2019-01-19T22:48:10.208Z,30.70
2019-01-19T22:50:39.257Z,31.70
2019-01-19T22:53:07.737Z,30.90
2019-01-19T22:55:36.250Z,31.27
2019-01-19T22:58:04.938Z,32.20
2019-01-19T23:00:59.545Z,31.00
2019-01-19T23:03:29.642Z,32.20
2019-01-19T23:05:58.194Z,32.85
2019-01-19T23:08:26.750Z,33.40
2019-01-19T23:11:01.078Z,32.20
2019-01-19T23:13:25.546Z,32.15
2019-01-19T23:15:54.107Z,32.73
2019-01-19T23:18:22.676Z,33.28
2019-01-19T23:20:51.220Z,34.90
2019-01-19T23:23:20.719Z,33.75
2019-01-19T23:25:49.266Z,34.95
2019-01-19T23:28:17.835Z,34.30
2019-01-19T23:30:46.461Z,33.90
2019-01-19T23:33:15.079Z,34.38
2019-01-19T23:35:43.644Z,34.85
2019-01-19T23:38:12.149Z,34.88
2019-01-19T23:40:40.763Z,36.23
2019-01-19T23:43:09.303Z,34.30
2019-01-19T23:45:39.748Z,35.60
2019-01-19T23:48:09.325Z,35.45
2019-01-19T23:50:37.823Z,36.30
2019-01-19T23:53:06.477Z,36.23
2019-01-19T23:55:35.019Z,37.28
2019-01-19T23:58:03.504Z,38.65
